createdAt,value
2023-04-06T00:00:41.318Z,2.10
2023-04-06T00:05:05.855Z,2.20
2023-04-06T00:09:30.077Z,2.30
2023-04-06T00:13:55.586Z,2.30
2023-04-06T00:18:20.590Z,2.40
2023-04-06T00:22:45.918Z,2.40
2023-04-06T00:27:10.105Z,2.50
2023-04-06T00:31:35.718Z,2.60
2023-04-06T00:36:00.349Z,2.60
2023-04-06T00:40:24.688Z,2.60
2023-04-06T00:44:49.090Z,2.70
2023-04-06T00:49:14.562Z,2.60
2023-04-06T00:53:38.607Z,2.60
2023-04-06T00:58:02.826Z,2.70
2023-04-06T01:02:32.312Z,2.60
2023-04-06T01:06:58.161Z,2.60
2023-04-06T01:11:29.424Z,2.60
2023-04-06T01:15:54.467Z,2.60
2023-04-06T01:20:48.076Z,2.60
2023-04-06T01:25:15.049Z,2.60
2023-04-06T01:29:47.339Z,2.60
2023-04-06T01:34:18.322Z,2.60
2023-04-06T01:38:43.948Z,2.50
2023-04-06T01:43:09.345Z,2.50
2023-04-06T01:47:53.596Z,2.50
2023-04-06T01:52:22.568Z,2.50
2023-04-06T01:56:51.582Z,2.50
2023-04-06T02:01:27.979Z,2.50
2023-04-06T02:05:54.661Z,2.50
2023-04-06T02:10:24.788Z,2.50
2023-04-06T02:14:50.152Z,2.60
2023-04-06T02:19:15.853Z,2.60
2023-04-06T02:23:37.452Z,2.50
2023-04-06T02:28:01.745Z,2.50
2023-04-06T02:32:27.407Z,2.50
2023-04-06T02:36:53.100Z,2.50
2023-04-06T02:41:17.262Z,2.50
2023-04-06T02:45:41.997Z,2.50
2023-04-06T02:50:08.548Z,2.40
2023-04-06T02:54:43.407Z,2.50
2023-04-06T02:59:08.844Z,2.40
2023-04-06T03:03:33.586Z,2.40
2023-04-06T03:07:58.067Z,2.30
2023-04-06T03:12:34.086Z,2.30
2023-04-06T03:17:24.392Z,2.40
2023-04-06T03:21:49.368Z,2.40
2023-04-06T03:26:15.713Z,2.40
2023-04-06T03:30:41.372Z,2.40
2023-04-06T03:35:07.144Z,2.30
2023-04-06T03:39:31.261Z,2.30
2023-04-06T03:43:52.243Z,2.30
2023-04-06T03:48:17.961Z,2.20
2023-04-06T03:52:42.396Z,2.20
2023-04-06T03:57:07.009Z,2.20
2023-04-06T04:01:31.197Z,2.20
2023-04-06T04:05:57.390Z,2.20
2023-04-06T04:10:23.445Z,2.10
2023-04-06T04:14:47.733Z,2.10
2023-04-06T04:19:11.862Z,2.10
2023-04-06T04:23:37.556Z,2.10
2023-04-06T04:28:02.462Z,2.00
2023-04-06T04:32:28.429Z,2.00
2023-04-06T04:36:54.460Z,1.90
2023-04-06T04:41:30.462Z,1.90
2023-04-06T04:45:55.558Z,1.80
2023-04-06T04:50:40.318Z,1.80
2023-04-06T04:55:04.848Z,1.80
2023-04-06T04:59:30.938Z,2.00
2023-04-06T05:04:01.652Z,2.00
2023-04-06T05:08:26.013Z,2.00
2023-04-06T05:12:50.244Z,2.10
2023-04-06T05:17:16.393Z,2.20
2023-04-06T05:21:40.848Z,2.40
2023-04-06T05:26:07.011Z,2.60
2023-04-06T05:30:31.302Z,2.70
2023-04-06T05:34:57.937Z,3.10
2023-04-06T05:39:22.856Z,3.50
2023-04-06T05:43:52.319Z,4.00
2023-04-06T05:48:16.736Z,4.40
2023-04-06T05:52:44.234Z,4.70
2023-04-06T05:57:11.103Z,4.70
2023-04-06T06:01:37.111Z,4.70
2023-04-06T06:06:05.218Z,5.00
2023-04-06T06:10:45.196Z,5.50
2023-04-06T06:15:11.770Z,5.70
2023-04-06T06:19:40.903Z,5.90
2023-04-06T06:24:06.795Z,6.20
2023-04-06T06:28:32.690Z,6.50
2023-04-06T06:32:57.233Z,7.50
2023-04-06T06:37:22.258Z,8.80
2023-04-06T06:41:47.556Z,9.30
2023-04-06T06:46:13.761Z,9.60
2023-04-06T06:50:38.836Z,9.80
2023-04-06T06:55:03.655Z,9.60
2023-04-06T06:59:28.185Z,9.50
2023-04-06T07:03:54.154Z,9.20
2023-04-06T07:08:18.553Z,9.10
2023-04-06T07:12:43.202Z,8.80
2023-04-06T07:17:07.461Z,9.20
2023-04-06T07:21:37.263Z,10.10
2023-04-06T07:26:03.000Z,10.40
2023-04-06T07:30:29.718Z,11.10
2023-04-06T07:34:56.289Z,12.20
2023-04-06T07:39:23.130Z,13.10
2023-04-06T07:43:47.412Z,14.00
2023-04-06T07:48:12.117Z,14.60
2023-04-06T07:52:38.275Z,15.70
2023-04-06T07:57:05.737Z,16.60
2023-04-06T08:01:30.554Z,17.00
2023-04-06T08:05:54.641Z,17.10
2023-04-06T08:10:18.851Z,17.50
2023-04-06T08:14:45.232Z,18.10
2023-04-06T08:19:10.549Z,18.50
2023-04-06T08:23:36.147Z,18.40
2023-04-06T08:28:00.664Z,18.90
2023-04-06T08:32:27.821Z,19.40
2023-04-06T08:36:52.311Z,20.00
2023-04-06T08:41:17.110Z,20.60
2023-04-06T08:45:42.822Z,20.70
2023-04-06T08:50:12.331Z,20.40
2023-04-06T08:54:36.955Z,20.40
2023-04-06T08:59:01.868Z,20.40
2023-04-06T09:03:28.183Z,20.10
2023-04-06T09:07:55.071Z,19.70
2023-04-06T09:12:26.647Z,19.80
2023-04-06T09:16:50.835Z,20.30
2023-04-06T09:21:15.581Z,21.00
2023-04-06T09:25:41.110Z,21.50
2023-04-06T09:30:07.846Z,22.00
2023-04-06T09:34:32.002Z,22.00
2023-04-06T09:38:58.412Z,22.00
2023-04-06T09:43:33.127Z,22.40
2023-04-06T09:47:57.582Z,22.70
2023-04-06T09:52:23.516Z,22.80
2023-04-06T09:56:49.643Z,22.80
2023-04-06T10:01:18.137Z,22.70
2023-04-06T10:05:48.662Z,22.00
2023-04-06T10:10:13.978Z,21.30
2023-04-06T10:14:38.044Z,20.40
2023-04-06T10:19:12.144Z,20.10
2023-04-06T10:23:38.602Z,19.00
2023-04-06T10:28:03.833Z,18.20
2023-04-06T10:32:34.879Z,17.70
2023-04-06T10:37:00.331Z,17.90
2023-04-06T10:41:24.669Z,18.70
2023-04-06T10:45:58.282Z,19.10
2023-04-06T10:50:23.312Z,19.00
2023-04-06T10:54:50.533Z,18.40
2023-04-06T10:59:14.956Z,18.10
2023-04-06T11:03:45.997Z,18.50
2023-04-06T11:08:10.095Z,18.70
2023-04-06T11:12:38.759Z,18.70
2023-04-06T11:17:05.496Z,19.00
2023-04-06T11:21:41.234Z,19.30
2023-04-06T11:26:13.583Z,19.40
2023-04-06T11:30:39.892Z,19.40
2023-04-06T11:35:06.855Z,18.90
2023-04-06T11:39:34.093Z,18.50
2023-04-06T11:44:00.547Z,18.70
2023-04-06T11:48:29.454Z,19.00
2023-04-06T11:53:02.896Z,18.70
2023-04-06T11:57:29.577Z,18.20
2023-04-06T12:01:55.715Z,17.90
2023-04-06T12:06:23.359Z,17.80
2023-04-06T12:10:48.954Z,18.00
2023-04-06T12:15:14.782Z,17.90
2023-04-06T12:19:40.292Z,17.50
2023-04-06T12:24:08.347Z,16.80
2023-04-06T12:28:34.955Z,16.00
2023-04-06T12:33:01.693Z,15.30
2023-04-06T12:37:28.594Z,14.60
2023-04-06T12:41:56.692Z,14.00
2023-04-06T12:46:23.002Z,13.50
2023-04-06T12:50:58.261Z,13.00
2023-04-06T12:55:25.274Z,12.60
2023-04-06T12:59:53.343Z,12.50
2023-04-06T13:04:20.054Z,12.40
2023-04-06T13:08:46.825Z,12.40
2023-04-06T13:13:13.405Z,12.40
2023-04-06T13:17:42.007Z,12.40
2023-04-06T13:22:08.024Z,12.30
2023-04-06T13:26:34.868Z,12.10
2023-04-06T13:31:03.488Z,12.00
2023-04-06T13:35:31.731Z,12.10
2023-04-06T13:39:58.401Z,11.90
2023-04-06T13:44:23.717Z,11.80
2023-04-06T13:48:49.060Z,11.80
2023-04-06T13:53:14.749Z,11.70
2023-04-06T13:57:38.890Z,11.70
2023-04-06T14:02:04.880Z,11.70
2023-04-06T14:06:31.722Z,11.70
2023-04-06T14:10:57.610Z,11.70
2023-04-06T14:15:23.014Z,11.70
2023-04-06T14:19:47.132Z,11.60
2023-04-06T14:24:11.470Z,11.70
2023-04-06T14:28:37.972Z,11.70
2023-04-06T14:33:03.258Z,11.70
2023-04-06T14:37:27.334Z,11.60
2023-04-06T14:41:53.006Z,11.60
2023-04-06T14:46:21.038Z,11.50
2023-04-06T14:50:56.778Z,11.50
2023-04-06T14:55:22.372Z,11.50
2023-04-06T14:59:46.576Z,11.50
2023-04-06T15:04:12.019Z,11.50
2023-04-06T15:08:36.029Z,11.50
2023-04-06T15:12:59.882Z,11.50
2023-04-06T15:17:24.139Z,11.50
2023-04-06T15:21:49.491Z,11.50
2023-04-06T15:26:13.395Z,11.50
2023-04-06T15:30:38.173Z,11.50
2023-04-06T15:35:11.421Z,11.50
2023-04-06T15:39:41.312Z,11.40
2023-04-06T15:44:07.144Z,11.40
2023-04-06T15:48:35.268Z,11.40
2023-04-06T15:52:59.564Z,11.30
2023-04-06T15:57:32.875Z,11.30
2023-04-06T16:01:57.120Z,11.30
2023-04-06T16:06:21.174Z,11.20
2023-04-06T16:10:48.368Z,11.20
2023-04-06T16:15:18.531Z,11.10
2023-04-06T16:19:44.134Z,11.10
2023-04-06T16:24:12.477Z,11.00
2023-04-06T16:28:36.373Z,11.00
2023-04-06T16:33:02.344Z,11.00
2023-04-06T16:37:29.716Z,10.90
2023-04-06T16:41:53.857Z,10.90
2023-04-06T16:46:22.166Z,10.80
2023-04-06T16:50:48.339Z,10.70
2023-04-06T16:55:13.352Z,10.60
2023-04-06T16:59:40.576Z,10.50
2023-04-06T17:04:04.674Z,10.40
2023-04-06T17:08:30.180Z,10.30
2023-04-06T17:12:56.343Z,10.20
2023-04-06T17:17:24.266Z,10.30
2023-04-06T17:21:49.320Z,10.40
2023-04-06T17:26:15.607Z,10.20
2023-04-06T17:30:42.716Z,10.00
2023-04-06T17:35:07.727Z,9.80
2023-04-06T17:39:31.797Z,9.60
2023-04-06T17:43:57.787Z,9.40
2023-04-06T17:48:22.109Z,9.20
2023-04-06T17:52:46.474Z,9.10
2023-04-06T17:57:10.585Z,8.90
2023-04-06T18:01:36.279Z,8.70
2023-04-06T18:06:10.932Z,8.60
2023-04-06T18:10:39.020Z,8.40
2023-04-06T18:15:03.305Z,8.30
2023-04-06T18:19:31.249Z,8.10
2023-04-06T18:23:49.534Z,8.00
2023-04-06T18:28:07.735Z,7.90
2023-04-06T18:32:30.208Z,7.80
2023-04-06T18:36:56.143Z,7.70
2023-04-06T18:41:21.003Z,7.60
2023-04-06T18:45:44.957Z,7.50
2023-04-06T18:50:09.579Z,7.40
2023-04-06T18:54:34.998Z,7.40
2023-04-06T18:58:59.093Z,7.20
2023-04-06T19:03:23.120Z,7.20
2023-04-06T19:07:52.144Z,7.10
2023-04-06T19:12:18.171Z,7.00
2023-04-06T19:16:51.815Z,6.90
2023-04-06T19:21:17.711Z,6.90
2023-04-06T19:25:44.260Z,6.80
2023-04-06T19:30:10.996Z,6.70
2023-04-06T19:34:35.156Z,6.60
2023-04-06T19:38:59.497Z,6.50
2023-04-06T19:43:23.366Z,6.50
2023-04-06T19:47:48.817Z,6.40
2023-04-06T19:52:13.170Z,6.40
2023-04-06T19:56:36.991Z,6.40
2023-04-06T20:01:01.473Z,6.30
2023-04-06T20:05:26.841Z,6.20
2023-04-06T20:09:50.856Z,6.20
2023-04-06T20:14:15.765Z,6.10
2023-04-06T20:18:39.564Z,6.10
2023-04-06T20:23:04.705Z,6.10
2023-04-06T20:27:28.574Z,6.00
2023-04-06T20:31:52.504Z,6.00
2023-04-06T20:36:16.830Z,6.00
2023-04-06T20:40:45.497Z,5.90
2023-04-06T20:45:12.160Z,5.90
2023-04-06T20:49:37.397Z,5.90
2023-04-06T20:54:01.666Z,5.80
2023-04-06T20:58:27.300Z,5.80
2023-04-06T21:02:51.509Z,5.70
2023-04-06T21:07:15.765Z,5.70
2023-04-06T21:11:39.818Z,5.70
2023-04-06T21:16:07.313Z,5.60
2023-04-06T21:20:31.674Z,5.60
2023-04-06T21:24:55.820Z,5.50
2023-04-06T21:29:20.280Z,5.40
2023-04-06T21:33:45.924Z,5.40
2023-04-06T21:38:09.982Z,5.30
2023-04-06T21:42:34.366Z,5.30
2023-04-06T21:46:58.942Z,5.20
2023-04-06T21:51:24.786Z,5.20
2023-04-06T21:55:49.540Z,5.10
2023-04-06T22:00:15.110Z,5.00
2023-04-06T22:04:39.324Z,5.00
2023-04-06T22:09:05.565Z,5.00
2023-04-06T22:13:30.243Z,4.90
2023-04-06T22:17:54.246Z,4.90
2023-04-06T22:22:18.143Z,4.80
2023-04-06T22:26:43.861Z,4.70
2023-04-06T22:31:07.822Z,4.60
2023-04-06T22:35:31.985Z,4.50
2023-04-06T22:39:56.415Z,4.50
2023-04-06T22:44:21.613Z,4.30
2023-04-06T22:48:45.627Z,4.30
2023-04-06T22:53:09.425Z,4.20
2023-04-06T22:57:33.333Z,4.10
2023-04-06T23:01:58.588Z,4.10
2023-04-06T23:06:22.693Z,4.00
2023-04-06T23:10:46.559Z,3.90
2023-04-06T23:15:11.750Z,3.90
2023-04-06T23:19:37.143Z,3.90
2023-04-06T23:24:01.779Z,3.80
2023-04-06T23:28:26.127Z,3.80
2023-04-06T23:32:50.015Z,3.80
2023-04-06T23:37:15.391Z,3.80
2023-04-06T23:41:39.156Z,3.70
2023-04-06T23:46:02.925Z,3.70
2023-04-06T23:50:27.061Z,3.60
2023-04-06T23:54:52.538Z,3.60
2023-04-06T23:59:16.369Z,3.50
